Time;durP1;ratioP1;P1;durP2;ratioP2;P2;SDS_P1;SDS_P2;PMS_P1;PMS_P2;Temp;Humidity;BMP_temperature;BMP_pressure;BME280_temperature;BME280_humidity;BME280_pressure;Samples;Min_cycle;Max_cycle;Signal;HPM_P1;HPM_P2
2021/10/25 05:58:05;;;;;;;8.46;5.34;;;;;;;0.05;88.40;99783.16;2310192;69;21114;31
2021/10/25 06:01:58;;;;;;;7.16;4.72;;;;;;;0.01;88.23;99789.81;2286174;70;20251;-81
2021/10/25 06:58:29;;;;;;;7.43;4.84;;;;;;;0.42;88.67;99809.47;2296639;70;20594;-80
2021/10/25 07:01:32;;;;;;;6.77;4.78;;;;;;;0.49;88.64;99811.47;2303942;67;24762;-80
2021/10/25 07:04:35;;;;;;;5.72;4.76;;;;;;;0.52;88.38;99811.59;2307336;69;20243;-80
2021/10/25 07:07:38;;;;;;;6.20;4.87;;;;;;;0.54;88.29;99812.56;2301492;70;21005;-80
2021/10/25 07:10:41;;;;;;;12.70;4.86;;;;;;;0.61;88.31;99813.66;2299808;70;20170;-81
2021/10/25 07:13:51;;;;;;;6.28;4.53;;;;;;;0.76;88.29;99814.31;2297886;69;20735;-80
2021/10/25 08:00:38;;;;;;;12.48;7.13;;;;;;;3.48;84.90;99824.97;2292816;70;20315;-80
2021/10/25 08:07:38;;;;;;;13.14;7.54;;;;;;;4.12;83.02;99815.72;2294514;70;20363;-80
2021/10/25 08:10:20;;;;;;;18.58;6.74;;;;;;;4.43;82.28;99825.16;2292142;70;20653;-80
2021/10/25 08:13:29;;;;;;;15.27;6.70;;;;;;;4.73;81.42;99815.69;2294413;70;20299;-80
2021/10/25 08:16:43;;;;;;;;;;;;;;;5.01;80.64;99808.63;2294349;67;24485;-79
2021/10/25 08:19:47;;;;;;;23.77;8.38;;;;;;;5.39;79.92;99812.13;2296478;70;20071;-80
2021/10/25 08:22:53;;;;;;;16.42;7.56;;;;;;;5.69;79.04;99805.06;2299240;70;20294;-80
2021/10/25 08:26:03;;;;;;;11.52;6.95;;;;;;;6.00;78.37;99804.06;2300401;70;20286;-81
2021/10/25 08:29:06;;;;;;;15.19;6.95;;;;;;;6.27;77.30;99808.00;2303149;70;20290;-80
2021/10/25 08:41:39;;;;;;;10.45;6.21;;;;;;;7.29;74.98;99804.63;2302936;70;20423;-81
2021/10/25 08:44:48;;;;;;;8.70;5.41;;;;;;;7.54;74.22;99805.84;2302245;70;20758;-81
2021/10/25 08:47:53;;;;;;;8.70;6.04;;;;;;;7.76;73.69;99807.06;2305476;67;25047;-80
2021/10/25 08:50:55;;;;;;;11.07;5.85;;;;;;;7.94;73.14;99798.66;2298457;70;20302;-81
2021/10/25 08:54:16;;;;;;;9.38;5.64;;;;;;;8.15;72.80;99791.16;2300512;69;20817;-82
2021/10/25 09:05:40;;;;;;;10.43;5.49;;;;;;;9.04;71.25;99782.59;2305935;69;20339;-80
2021/10/25 09:08:59;;;;;;;8.90;5.11;;;;;;;9.43;70.97;99776.81;2310174;69;20235;-83
2021/10/25 09:15:18;;;;;;;10.64;5.25;;;;;;;9.95;69.52;99772.78;2318834;69;20023;-82
2021/10/25 09:18:24;;;;;;;8.43;4.88;;;;;;;10.23;69.41;99768.59;2275757;70;20186;-80
2021/10/25 09:21:40;;;;;;;9.40;5.89;;;;;;;10.53;69.15;99767.78;2261760;71;20272;-80
2021/10/25 09:24:55;;;;;;;8.59;5.13;;;;;;;10.73;68.50;99764.34;2241027;71;20297;-80
2021/10/25 09:28:09;;;;;;;12.38;5.41;;;;;;;10.87;67.19;99757.44;2231977;72;20169;-80
2021/10/25 09:31:26;;;;;;;7.54;4.54;;;;;;;11.04;66.86;99757.44;2232407;72;20160;-81
2021/10/25 09:34:57;;;;;;;7.85;4.21;;;;;;;11.27;66.65;99755.69;2230689;72;20166;-80
2021/10/25 09:38:36;;;;;;;6.47;4.26;;;;;;;11.54;66.80;99748.72;2238723;72;20244;-81
2021/10/25 10:11:40;;;;;;;5.19;3.45;;;;;;;12.74;63.01;99732.47;2314306;69;20126;-80
2021/10/25 16:37:47;;;;;;;1.73;1.17;;;;;;;12.28;80.68;99547.09;2284770;69;21387;31
2021/10/25 16:44:53;;;;;;;4.16;1.17;;;;;;;11.95;81.89;99549.09;2318832;69;20204;-82
2021/10/25 16:48:26;;;;;;;5.03;1.40;;;;;;;11.88;82.49;99556.97;2315485;69;20137;-82
2021/10/25 16:52:45;;;;;;;;;;;;;;;;;;;;;
2021/10/25 16:55:36;;;;;;;3.63;1.05;;;;;;;11.67;82.80;99557.91;2305632;70;20103;-82
2021/10/25 17:05:50;;;;;;;3.97;1.15;;;;;;;11.42;83.44;99565.84;2320517;69;20174;-82
2021/10/25 17:12:17;;;;;;;2.54;1.20;;;;;;;11.34;84.49;99582.38;2300732;69;20364;-83
2021/10/25 17:15:20;;;;;;;2.71;1.06;;;;;;;11.31;84.99;99585.84;2305013;70;20108;-82
2021/10/25 17:18:24;;;;;;;1.51;1.25;;;;;;;11.31;85.26;99597.97;2303578;70;20155;-83
2021/10/25 17:21:28;;;;;;;1.70;1.38;;;;;;;11.28;85.58;99601.44;2292789;70;20108;-84
2021/10/25 17:24:34;;;;;;;4.43;1.21;;;;;;;11.27;85.84;99607.50;2314567;70;20215;-83
2021/10/25 17:27:37;;;;;;;1.60;1.20;;;;;;;11.25;85.96;99609.25;2294613;69;20154;-82
2021/10/25 17:30:39;;;;;;;4.34;1.52;;;;;;;11.26;85.91;99612.72;2298764;69;20185;-82
2021/10/25 17:44:08;;;;;;;4.19;1.50;;;;;;;11.31;85.95;99640.44;2290953;69;20209;31
2021/10/25 17:48:14;;;;;;;1.99;1.15;;;;;;;11.30;86.20;99641.28;2290442;69;20243;31
2021/10/25 17:58:53;;;;;;;2.71;1.54;;;;;;;11.36;86.89;99649.09;2294690;69;20209;31
2021/10/25 18:02:30;;;;;;;1.71;1.19;;;;;;;11.40;87.37;99649.94;2297652;70;20104;-83
2021/10/25 18:05:36;;;;;;;3.16;1.50;;;;;;;11.38;87.56;99646.47;2295661;70;20112;-84
2021/10/25 18:08:43;;;;;;;3.00;1.85;;;;;;;11.38;87.69;99649.94;2304068;69;20234;-84
2021/10/25 18:11:59;;;;;;;3.13;1.60;;;;;;;11.37;87.88;99660.34;2294877;74;20111;-83
2021/10/25 18:15:10;;;;;;;2.96;2.15;;;;;;;11.36;88.03;99648.22;2288272;70;20108;-83
2021/10/25 18:18:22;;;;;;;3.79;1.94;;;;;;;11.35;88.22;99665.56;2295361;70;20247;-84
2021/10/25 18:21:35;;;;;;;2.91;1.45;;;;;;;11.35;88.30;99662.97;2287026;70;20202;-84
2021/10/25 18:25:01;;;;;;;1.99;1.46;;;;;;;11.36;88.35;99663.81;2278154;71;20121;-83
2021/10/25 18:35:02;;;;;;;4.35;2.31;;;;;;;11.35;88.82;99670.75;2292503;70;20104;-86
2021/10/25 18:45:28;;;;;;;2.89;2.46;;;;;;;11.30;89.14;99677.69;2322319;69;20102;31
2021/10/25 18:49:22;;;;;;;4.04;2.25;;;;;;;11.30;89.22;99680.28;2288213;70;20142;-83
2021/10/25 18:56:03;;;;;;;3.66;2.20;;;;;;;11.27;89.35;99682.03;2314703;68;20234;31
2021/10/25 18:59:22;;;;;;;3.96;2.42;;;;;;;11.27;89.21;99675.09;2289204;70;20206;-85
2021/10/25 19:02:27;;;;;;;3.81;2.41;;;;;;;11.26;89.20;99673.38;2283257;70;20116;-84
2021/10/25 19:05:34;;;;;;;3.92;2.19;;;;;;;11.25;89.25;99679.44;2299390;70;20574;-84
2021/10/25 19:08:39;;;;;;;2.29;2.04;;;;;;;11.22;89.33;99676.84;2285160;70;20184;-83
2021/10/25 19:11:41;;;;;;;2.94;1.91;;;;;;;11.24;89.28;99682.03;2299616;69;20193;-83
2021/10/25 19:18:04;;;;;;;3.36;2.35;;;;;;;11.24;89.21;99679.44;2301752;69;20122;-82
2021/10/25 19:21:07;;;;;;;3.91;2.40;;;;;;;11.22;89.34;99675.97;2308418;69;20123;-82
2021/10/25 19:24:11;;;;;;;2.97;2.67;;;;;;;11.21;89.36;99680.31;2315669;69;20216;-83
2021/10/25 19:27:14;;;;;;;4.47;2.58;;;;;;;11.20;89.28;99686.38;2314873;69;20127;-82
2021/10/25 19:30:17;;;;;;;5.72;2.71;;;;;;;11.17;89.34;99687.25;2306615;69;20132;-82
2021/10/25 19:36:29;;;;;;;3.64;1.80;;;;;;;11.11;89.27;99684.66;2316289;69;20131;-82
2021/10/25 19:42:42;;;;;;;3.50;2.05;;;;;;;11.07;89.63;99682.06;2305136;70;20103;-81
2021/10/25 19:45:48;;;;;;;2.80;1.80;;;;;;;11.09;89.68;99690.72;2290848;70;20104;-81
2021/10/25 19:48:51;;;;;;;2.41;2.10;;;;;;;11.09;89.76;99680.34;2299090;70;20210;-81
2021/10/25 19:51:54;;;;;;;3.36;2.65;;;;;;;11.09;89.80;99678.59;2329986;70;20171;-81
2021/10/25 19:54:57;;;;;;;2.72;1.94;;;;;;;11.10;89.87;99688.13;2310752;70;20116;-81
2021/10/25 19:58:05;;;;;;;3.58;1.91;;;;;;;11.11;89.93;99683.78;2300611;70;20149;-81
2021/10/25 20:01:11;;;;;;;3.97;1.64;;;;;;;11.14;89.64;99695.06;2314860;70;20241;-82
2021/10/25 20:04:14;;;;;;;4.85;2.44;;;;;;;11.13;89.58;99692.44;2303197;70;20234;-81
2021/10/25 20:07:17;;;;;;;1.44;1.14;;;;;;;11.11;89.65;99692.44;2324749;70;20101;-81
2021/10/25 20:10:21;;;;;;;2.54;2.00;;;;;;;11.09;89.79;99707.19;2306469;70;20108;-81
2021/10/25 20:13:25;;;;;;;3.86;2.58;;;;;;;11.11;89.65;99694.19;2327217;70;20140;-81
2021/10/25 20:16:28;;;;;;;1.75;1.52;;;;;;;11.10;89.61;99695.06;2293065;70;20130;-81
2021/10/25 20:19:30;;;;;;;4.20;2.05;;;;;;;11.11;89.52;99704.56;2301648;70;20173;-80
2021/10/25 20:22:33;;;;;;;2.38;1.90;;;;;;;11.09;89.43;99717.59;2301913;70;20230;-82
2021/10/25 20:25:36;;;;;;;3.22;1.75;;;;;;;11.08;89.53;99715.84;2313905;70;20116;-80
2021/10/25 20:28:39;;;;;;;2.65;1.89;;;;;;;11.11;89.32;99717.56;2310247;70;20104;-81
2021/10/25 20:31:42;;;;;;;4.71;1.83;;;;;;;11.11;89.17;99720.16;2311529;70;20108;-81
2021/10/25 20:34:45;;;;;;;3.34;1.60;;;;;;;11.09;89.49;99720.19;2311204;70;20108;-80
2021/10/25 20:58:48;;;;;;;3.11;1.20;;;;;;;10.95;90.42;99739.25;2283389;69;20221;31
2021/10/25 21:05:04;;;;;;;1.94;1.20;;;;;;;10.83;90.55;99737.53;2316245;70;20180;-89
2021/10/25 21:08:11;;;;;;;1.84;1.06;;;;;;;10.82;90.63;99746.19;2310934;69;20115;-84
2021/10/25 21:11:45;;;;;;;1.73;1.00;;;;;;;10.81;90.72;99752.25;2305702;69;20108;-84
2021/10/25 21:15:12;;;;;;;3.29;1.13;;;;;;;10.77;90.93;99747.91;2318930;69;20722;-83
2021/10/25 21:25:38;;;;;;;4.78;2.24;;;;;;;10.77;91.20;99741.00;2282458;69;21165;31
2021/10/25 21:33:34;;;;;;;4.47;2.49;;;;;;;10.82;91.08;99739.25;2283378;69;20259;31
2021/10/25 21:45:27;;;;;;;2.92;2.25;;;;;;;10.80;91.22;99756.59;2326507;69;20162;-81
2021/10/25 21:55:12;;;;;;;4.39;2.14;;;;;;;10.82;91.12;99753.97;2322854;69;20209;-84
2021/10/25 21:58:39;;;;;;;4.01;1.71;;;;;;;10.83;91.06;99758.31;2305892;69;20703;-86
2021/10/25 22:13:01;;;;;;;3.79;1.98;;;;;;;10.77;90.71;99756.59;2306650;69;20157;31
2021/10/25 22:22:00;;;;;;;1.89;1.59;;;;;;;10.64;90.83;99759.16;2288881;69;20331;31
2021/10/25 22:25:29;;;;;;;2.16;1.71;;;;;;;10.53;90.99;99757.41;2305617;70;20131;-84
